createdAt,value
2023-04-19T00:01:03.584Z,99181.00
2023-04-19T00:03:30.483Z,99177.00
2023-04-19T00:05:59.893Z,99179.00
2023-04-19T00:08:26.647Z,99180.00
2023-04-19T00:10:53.250Z,99178.00
2023-04-19T00:13:19.947Z,99176.00
2023-04-19T00:15:46.622Z,99175.00
2023-04-19T00:18:13.113Z,99169.00
2023-04-19T00:20:39.689Z,99178.00
2023-04-19T00:23:06.404Z,99173.00
2023-04-19T00:25:34.637Z,99173.00
2023-04-19T00:28:01.371Z,99166.00
2023-04-19T00:30:28.015Z,99172.00
2023-04-19T00:32:54.576Z,99174.00
2023-04-19T00:35:21.256Z,99169.00
2023-04-19T00:37:47.767Z,99170.00
2023-04-19T00:40:14.391Z,99169.00
2023-04-19T00:42:40.887Z,99170.00
2023-04-19T00:45:07.947Z,99170.00
2023-04-19T00:47:36.487Z,99166.00
2023-04-19T00:50:04.560Z,99162.00
2023-04-19T00:52:33.140Z,99159.00
2023-04-19T00:55:00.121Z,99157.00
2023-04-19T00:57:29.646Z,99175.00
2023-04-19T00:59:57.078Z,99157.00
2023-04-19T01:02:23.893Z,99161.00
2023-04-19T01:04:50.996Z,99159.00
2023-04-19T01:07:18.207Z,99161.00
2023-04-19T01:09:45.218Z,99156.00
2023-04-19T01:12:11.880Z,99155.00
2023-04-19T01:14:38.577Z,99150.00
2023-04-19T01:17:06.052Z,99154.00
2023-04-19T01:19:34.717Z,99143.00
2023-04-19T01:22:04.142Z,99147.00
2023-04-19T01:24:30.863Z,99153.00
2023-04-19T01:26:57.408Z,99142.00
2023-04-19T01:29:23.961Z,99146.00
2023-04-19T01:31:53.870Z,99150.00
2023-04-19T01:34:20.866Z,99138.00
2023-04-19T01:36:47.406Z,99138.00
2023-04-19T01:39:14.054Z,99133.00
2023-04-19T01:41:40.913Z,99129.00
2023-04-19T01:44:09.361Z,99126.00
2023-04-19T01:46:38.837Z,99129.00
2023-04-19T01:49:05.710Z,99125.00
2023-04-19T01:51:32.204Z,99120.00
2023-04-19T01:54:01.607Z,99122.00
2023-04-19T01:56:28.174Z,99121.00
2023-04-19T01:58:54.745Z,99121.00
2023-04-19T02:01:21.403Z,99116.00
2023-04-19T02:03:48.295Z,99106.00
2023-04-19T02:06:15.050Z,99116.00
2023-04-19T02:08:42.781Z,99110.00
2023-04-19T02:11:10.474Z,99106.00
2023-04-19T02:13:37.235Z,99103.00
2023-04-19T02:16:06.894Z,99101.00
2023-04-19T02:18:33.580Z,99098.00
2023-04-19T02:21:00.240Z,99105.00
2023-04-19T02:23:26.912Z,99099.00
2023-04-19T02:25:53.644Z,99099.00
2023-04-19T02:28:20.297Z,99100.00
2023-04-19T02:30:46.845Z,99100.00
2023-04-19T02:33:13.620Z,99094.00
2023-04-19T02:35:40.187Z,99093.00
2023-04-19T02:38:06.687Z,99100.00
2023-04-19T02:40:33.305Z,99099.00
2023-04-19T02:42:59.883Z,99099.00
2023-04-19T02:45:26.356Z,99098.00
2023-04-19T02:47:54.584Z,99103.00
2023-04-19T02:50:21.510Z,99104.00
2023-04-19T02:52:50.215Z,99099.00
2023-04-19T02:55:17.464Z,99098.00
2023-04-19T02:57:46.483Z,99098.00
2023-04-19T03:00:13.897Z,99096.00
2023-04-19T03:02:45.908Z,99096.00
2023-04-19T03:05:12.629Z,99102.00
2023-04-19T03:07:39.195Z,99105.00
2023-04-19T03:10:06.654Z,99092.00
2023-04-19T03:12:33.141Z,99092.00
2023-04-19T03:14:59.675Z,99090.00
2023-04-19T03:17:26.684Z,99086.00
2023-04-19T03:19:54.002Z,99080.00
2023-04-19T03:22:20.603Z,99076.00
2023-04-19T03:24:47.402Z,99090.00
2023-04-19T03:27:21.777Z,99086.00
2023-04-19T03:29:53.620Z,99080.00
2023-04-19T03:32:20.338Z,99081.00
2023-04-19T03:34:47.092Z,99081.00
2023-04-19T03:37:15.700Z,99078.00
2023-04-19T03:39:42.357Z,99076.00
2023-04-19T03:42:13.990Z,99071.00
2023-04-19T03:44:55.873Z,99074.00
2023-04-19T03:47:24.812Z,99067.00
2023-04-19T03:49:55.258Z,99067.00
2023-04-19T03:52:21.821Z,99065.00
2023-04-19T03:54:48.351Z,99066.00
2023-04-19T03:57:26.063Z,99053.00
2023-04-19T03:59:53.417Z,99057.00
2023-04-19T04:02:20.220Z,99060.00
2023-04-19T04:04:46.999Z,99058.00
2023-04-19T04:07:13.723Z,99056.00
2023-04-19T04:09:40.235Z,99056.00
2023-04-19T04:12:06.819Z,99049.00
2023-04-19T04:14:33.454Z,99052.00
2023-04-19T04:17:00.516Z,99055.00
2023-04-19T04:19:27.035Z,99056.00
2023-04-19T04:21:54.143Z,99058.00
2023-04-19T04:24:22.298Z,99057.00
2023-04-19T04:27:20.129Z,99059.00
2023-04-19T04:29:49.458Z,99053.00
2023-04-19T04:32:18.124Z,99052.00
2023-04-19T04:34:44.750Z,99058.00
2023-04-19T04:37:17.935Z,99054.00
2023-04-19T04:39:44.724Z,99059.00
2023-04-19T04:42:12.164Z,99062.00
2023-04-19T04:44:39.072Z,99056.00
2023-04-19T04:47:07.328Z,99049.00
2023-04-19T04:49:39.943Z,99055.00
2023-04-19T04:52:08.636Z,99059.00
2023-04-19T04:54:42.753Z,99060.00
2023-04-19T04:57:19.742Z,99064.00
2023-04-19T04:59:48.124Z,99067.00
2023-04-19T05:02:17.166Z,99061.00
2023-04-19T05:04:43.954Z,99062.00
2023-04-19T05:07:10.968Z,99066.00
2023-04-19T05:09:37.902Z,99063.00
2023-04-19T05:12:04.951Z,99065.00
2023-04-19T05:14:31.550Z,99060.00
2023-04-19T05:16:58.129Z,99061.00
2023-04-19T05:19:24.684Z,99070.00
2023-04-19T05:21:57.227Z,99067.00
2023-04-19T05:24:23.806Z,99066.00
2023-04-19T05:26:51.438Z,99077.00
2023-04-19T05:29:18.290Z,99080.00
2023-04-19T05:31:50.141Z,99070.00
2023-04-19T05:34:22.307Z,99073.00
2023-04-19T05:36:51.938Z,99072.00
2023-04-19T05:39:18.473Z,99076.00
2023-04-19T05:41:44.976Z,99070.00
2023-04-19T05:44:11.488Z,99070.00
2023-04-19T05:46:38.261Z,99072.00
2023-04-19T05:49:06.792Z,99070.00
2023-04-19T05:51:51.682Z,99074.00
2023-04-19T05:54:36.673Z,99078.00
2023-04-19T05:57:04.910Z,99071.00
2023-04-19T05:59:31.597Z,99075.00
2023-04-19T06:01:58.310Z,99075.00
2023-04-19T06:04:25.221Z,99076.00
2023-04-19T06:06:52.032Z,99073.00
2023-04-19T06:09:18.769Z,99075.00
2023-04-19T06:11:50.934Z,99078.00
2023-04-19T06:14:18.855Z,99068.00
2023-04-19T06:16:46.200Z,99076.00
2023-04-19T06:19:12.739Z,99079.00
2023-04-19T06:21:39.444Z,99080.00
2023-04-19T06:24:06.967Z,99078.00
2023-04-19T06:26:33.753Z,99077.00
2023-04-19T06:29:00.413Z,99078.00
2023-04-19T06:31:26.970Z,99074.00
2023-04-19T06:33:53.612Z,99073.00
2023-04-19T06:36:20.320Z,99071.00
2023-04-19T06:38:46.782Z,99080.00
2023-04-19T06:41:13.411Z,99078.00
2023-04-19T06:43:40.881Z,99068.00
2023-04-19T06:46:07.622Z,99071.00
2023-04-19T06:48:34.845Z,99074.00
2023-04-19T06:51:01.569Z,99078.00
2023-04-19T06:53:28.350Z,99080.00
2023-04-19T06:56:01.339Z,99078.00
2023-04-19T06:58:28.775Z,99077.00
2023-04-19T07:00:55.681Z,99075.00
2023-04-19T07:03:22.490Z,99067.00
2023-04-19T07:05:49.381Z,99086.00
2023-04-19T07:08:16.064Z,99083.00
2023-04-19T07:10:43.838Z,99069.00
2023-04-19T07:13:13.464Z,99066.00
2023-04-19T07:15:40.241Z,99070.00
2023-04-19T07:18:07.241Z,99069.00
2023-04-19T07:20:34.242Z,99068.00
2023-04-19T07:23:00.890Z,99057.00
2023-04-19T07:25:27.821Z,99059.00
2023-04-19T07:27:54.879Z,99057.00
2023-04-19T07:30:21.612Z,99062.00
2023-04-19T07:32:48.501Z,99056.00
2023-04-19T07:35:15.231Z,99058.00
2023-04-19T07:37:42.168Z,99053.00
2023-04-19T07:40:09.288Z,99061.00
2023-04-19T07:42:35.793Z,99054.00
2023-04-19T07:45:02.400Z,99057.00
2023-04-19T07:47:28.918Z,99074.00
2023-04-19T07:49:56.012Z,99062.00
2023-04-19T07:52:22.505Z,99063.00
2023-04-19T07:54:49.028Z,99064.00
2023-04-19T07:57:15.546Z,99063.00
2023-04-19T07:59:42.016Z,99062.00
2023-04-19T08:02:08.786Z,99067.00
2023-04-19T08:04:35.594Z,99066.00
2023-04-19T08:07:04.107Z,99060.00
2023-04-19T08:09:30.945Z,99057.00
2023-04-19T08:11:57.711Z,99060.00
2023-04-19T08:14:37.583Z,99057.00
2023-04-19T08:17:25.669Z,99061.00
2023-04-19T08:19:53.666Z,99067.00
2023-04-19T08:22:21.166Z,99065.00
2023-04-19T08:24:50.066Z,99068.00
2023-04-19T08:27:16.559Z,99062.00
2023-04-19T08:29:43.399Z,99058.00
2023-04-19T08:32:11.240Z,99063.00
2023-04-19T08:34:39.189Z,99053.00
2023-04-19T08:37:07.252Z,99060.00
2023-04-19T08:39:35.056Z,99063.00
2023-04-19T08:42:13.415Z,99060.00
2023-04-19T08:45:09.389Z,99058.00
2023-04-19T08:47:51.919Z,99054.00
2023-04-19T08:50:32.032Z,99057.00
2023-04-19T08:53:12.223Z,99054.00
2023-04-19T08:56:06.888Z,99055.00
2023-04-19T09:01:05.990Z,99044.00
2023-04-19T09:03:40.789Z,99048.00
2023-04-19T09:06:14.483Z,99036.00
2023-04-19T09:08:41.836Z,99032.00
2023-04-19T09:11:09.196Z,99024.00
2023-04-19T09:13:38.372Z,99031.00
2023-04-19T09:16:05.845Z,99023.00
2023-04-19T09:18:34.445Z,99026.00
2023-04-19T09:21:04.624Z,99029.00
2023-04-19T09:23:31.084Z,99025.00
2023-04-19T09:28:31.858Z,99015.00
2023-04-19T09:31:10.725Z,99008.00
2023-04-19T09:33:45.667Z,99014.00
2023-04-19T09:36:27.856Z,99005.00
2023-04-19T09:38:54.733Z,99004.00
2023-04-19T09:41:21.499Z,99004.00
2023-04-19T09:46:29.919Z,98993.00
2023-04-19T09:49:25.262Z,98990.00
2023-04-19T09:52:05.228Z,98991.00
2023-04-19T09:54:32.649Z,98989.00
2023-04-19T09:57:01.715Z,98986.00
2023-04-19T09:59:28.355Z,98990.00
2023-04-19T10:01:56.482Z,98982.00
2023-04-19T10:04:36.306Z,98985.00
2023-04-19T10:07:29.199Z,98993.00
2023-04-19T10:10:05.039Z,98992.00
2023-04-19T10:13:07.008Z,98985.00
2023-04-19T10:15:33.907Z,98979.00
2023-04-19T10:18:09.974Z,98977.00
2023-04-19T10:20:42.039Z,98986.00
2023-04-19T10:23:09.327Z,98973.00
2023-04-19T10:25:37.825Z,98979.00
2023-04-19T10:28:04.505Z,98974.00
2023-04-19T10:30:31.141Z,98975.00
2023-04-19T10:33:00.292Z,98980.00
2023-04-19T10:35:33.643Z,98986.00
2023-04-19T10:38:07.009Z,98981.00
2023-04-19T10:40:52.321Z,98981.00
2023-04-19T10:43:20.039Z,98984.00
2023-04-19T10:45:47.534Z,98981.00
2023-04-19T10:48:35.587Z,98981.00
2023-04-19T10:51:16.038Z,98982.00
2023-04-19T10:53:47.402Z,98980.00
2023-04-19T10:56:14.740Z,98981.00
2023-04-19T10:59:00.392Z,98974.00
2023-04-19T11:01:46.504Z,98971.00
2023-04-19T11:04:23.441Z,98960.00
2023-04-19T11:06:53.114Z,98958.00
2023-04-19T11:09:26.887Z,98956.00
2023-04-19T11:11:58.453Z,98953.00
2023-04-19T11:14:25.350Z,98942.00
2023-04-19T11:16:51.897Z,98951.00
2023-04-19T11:19:19.449Z,98938.00
2023-04-19T11:21:47.154Z,98944.00
2023-04-19T11:24:16.058Z,98938.00
2023-04-19T11:26:44.119Z,98939.00
2023-04-19T11:29:10.878Z,98929.00
2023-04-19T11:31:37.987Z,98922.00
2023-04-19T11:34:04.900Z,98926.00
2023-04-19T11:36:32.300Z,98925.00
2023-04-19T11:38:58.782Z,98918.00
2023-04-19T11:41:25.260Z,98912.00
2023-04-19T11:43:52.010Z,98913.00
2023-04-19T11:46:18.559Z,98914.00
2023-04-19T11:48:52.898Z,98904.00
2023-04-19T11:51:19.620Z,98906.00
2023-04-19T11:53:46.428Z,98904.00
2023-04-19T11:56:15.125Z,98900.00
2023-04-19T11:58:44.951Z,98906.00
2023-04-19T12:01:13.372Z,98902.00
2023-04-19T12:03:44.806Z,98898.00
2023-04-19T12:06:36.496Z,98900.00
2023-04-19T12:09:08.734Z,98904.00
2023-04-19T12:11:50.089Z,98899.00
2023-04-19T12:14:22.171Z,98886.00
2023-04-19T12:17:06.307Z,98882.00
2023-04-19T12:19:44.658Z,98880.00
2023-04-19T12:22:16.440Z,98878.00
2023-04-19T12:24:43.511Z,98884.00
2023-04-19T12:27:10.795Z,98864.00
2023-04-19T12:29:38.225Z,98872.00
2023-04-19T12:32:05.619Z,98869.00
2023-04-19T12:34:32.230Z,98876.00
2023-04-19T12:36:58.842Z,98863.00
2023-04-19T12:39:25.770Z,98863.00
2023-04-19T12:41:52.366Z,98865.00
2023-04-19T12:44:18.876Z,98864.00
2023-04-19T12:46:45.439Z,98849.00
2023-04-19T12:49:11.933Z,98847.00
2023-04-19T12:51:38.425Z,98847.00
2023-04-19T12:54:07.424Z,98839.00
2023-04-19T12:56:34.872Z,98846.00
2023-04-19T12:59:01.576Z,98838.00
2023-04-19T13:01:28.208Z,98830.00
2023-04-19T13:03:58.146Z,98828.00
2023-04-19T13:06:26.260Z,98820.00
2023-04-19T13:08:53.052Z,98829.00
2023-04-19T13:11:23.375Z,98821.00
2023-04-19T13:13:51.659Z,98816.00
2023-04-19T13:16:18.633Z,98808.00
2023-04-19T13:18:45.284Z,98804.00
2023-04-19T13:21:11.944Z,98808.00
2023-04-19T13:23:38.476Z,98804.00
2023-04-19T13:26:05.212Z,98805.00
2023-04-19T13:28:31.723Z,98800.00
2023-04-19T13:30:58.293Z,98808.00
2023-04-19T13:33:26.803Z,98801.00
2023-04-19T13:35:53.280Z,98800.00
2023-04-19T13:38:19.873Z,98791.00
2023-04-19T13:40:46.375Z,98793.00
2023-04-19T13:43:12.858Z,98786.00
2023-04-19T13:45:39.313Z,98788.00
2023-04-19T13:48:06.050Z,98778.00
2023-04-19T13:50:32.575Z,98791.00
2023-04-19T13:52:59.139Z,98782.00
2023-04-19T13:55:27.244Z,98769.00
2023-04-19T13:57:53.833Z,98766.00
2023-04-19T14:00:21.171Z,98765.00
2023-04-19T14:02:48.917Z,98765.00
2023-04-19T14:05:17.446Z,98775.00
2023-04-19T14:07:43.888Z,98761.00
2023-04-19T14:10:10.669Z,98757.00
2023-04-19T14:12:37.301Z,98762.00
2023-04-19T14:15:04.249Z,98753.00
2023-04-19T14:17:30.796Z,98740.00
2023-04-19T14:19:57.398Z,98749.00
2023-04-19T14:22:23.817Z,98746.00
2023-04-19T14:24:50.646Z,98748.00
2023-04-19T14:27:17.366Z,98751.00
2023-04-19T14:29:43.873Z,98736.00
2023-04-19T14:32:24.200Z,98740.00
2023-04-19T14:34:51.756Z,98731.00
2023-04-19T14:37:18.998Z,98731.00
2023-04-19T14:39:46.063Z,98722.00
2023-04-19T14:42:12.600Z,98734.00
2023-04-19T14:44:39.640Z,98720.00
2023-04-19T14:47:06.089Z,98720.00
2023-04-19T14:49:32.541Z,98720.00
2023-04-19T14:51:59.022Z,98721.00
2023-04-19T14:54:25.658Z,98716.00
2023-04-19T14:56:52.726Z,98719.00
2023-04-19T14:59:19.265Z,98716.00
2023-04-19T15:01:46.089Z,98715.00
2023-04-19T15:04:12.863Z,98718.00
2023-04-19T15:06:39.446Z,98725.00
2023-04-19T15:09:05.917Z,98713.00
2023-04-19T15:11:32.397Z,98708.00
2023-04-19T15:13:58.849Z,98720.00
2023-04-19T15:16:25.357Z,98710.00
2023-04-19T15:18:52.255Z,98714.00
2023-04-19T15:21:21.689Z,98706.00
2023-04-19T15:23:49.640Z,98719.00
2023-04-19T15:26:16.363Z,98717.00
2023-04-19T15:28:42.893Z,98709.00
2023-04-19T15:31:10.253Z,98715.00
2023-04-19T15:33:37.795Z,98720.00
2023-04-19T15:36:04.708Z,98724.00
2023-04-19T15:38:32.397Z,98719.00
2023-04-19T15:41:00.506Z,98713.00
2023-04-19T15:43:27.366Z,98717.00
2023-04-19T15:45:53.912Z,98717.00
2023-04-19T15:48:21.252Z,98720.00
2023-04-19T15:50:47.760Z,98715.00
2023-04-19T15:53:14.397Z,98716.00
2023-04-19T15:55:41.583Z,98714.00
2023-04-19T15:58:08.089Z,98722.00
2023-04-19T16:00:34.762Z,98715.00
2023-04-19T16:03:01.506Z,98718.00
2023-04-19T16:05:28.188Z,98706.00
2023-04-19T16:08:07.863Z,98709.00
2023-04-19T16:10:34.881Z,98699.00
2023-04-19T16:13:02.810Z,98704.00
2023-04-19T16:15:29.552Z,98719.00
2023-04-19T16:17:56.229Z,98711.00
2023-04-19T16:20:22.869Z,98708.00
2023-04-19T16:22:49.585Z,98706.00
2023-04-19T16:25:16.887Z,98705.00
2023-04-19T16:27:45.929Z,98708.00
2023-04-19T16:30:13.191Z,98703.00
2023-04-19T16:32:40.527Z,98713.00
2023-04-19T16:35:08.125Z,98715.00
2023-04-19T16:37:35.547Z,98720.00
2023-04-19T16:40:07.997Z,98718.00
2023-04-19T16:42:35.424Z,98692.00
2023-04-19T16:45:02.367Z,98706.00
2023-04-19T16:47:30.667Z,98697.00
2023-04-19T16:49:57.988Z,98693.00
2023-04-19T16:52:26.357Z,98693.00
2023-04-19T16:54:53.099Z,98704.00
2023-04-19T16:57:20.419Z,98696.00
2023-04-19T16:59:47.451Z,98688.00
2023-04-19T17:02:14.339Z,98707.00
2023-04-19T17:04:41.248Z,98688.00
2023-04-19T17:07:08.756Z,98690.00
2023-04-19T17:09:36.154Z,98703.00
2023-04-19T17:12:02.801Z,98687.00
2023-04-19T17:14:29.329Z,98692.00
2023-04-19T17:16:56.006Z,98684.00
2023-04-19T17:19:22.572Z,98694.00
2023-04-19T17:21:49.037Z,98695.00
2023-04-19T17:24:16.151Z,98689.00
2023-04-19T17:26:42.623Z,98685.00
2023-04-19T17:29:09.183Z,98694.00
2023-04-19T17:31:35.786Z,98691.00
2023-04-19T17:34:02.487Z,98700.00
2023-04-19T17:36:28.994Z,98688.00
2023-04-19T17:38:55.423Z,98697.00
2023-04-19T17:41:21.885Z,98706.00
2023-04-19T17:43:48.373Z,98714.00
2023-04-19T17:46:15.130Z,98719.00
2023-04-19T17:48:41.897Z,98716.00
2023-04-19T17:51:08.397Z,98715.00
2023-04-19T17:53:34.977Z,98711.00
2023-04-19T17:56:01.866Z,98712.00
2023-04-19T17:58:28.339Z,98716.00
2023-04-19T18:00:54.848Z,98706.00
2023-04-19T18:03:21.418Z,98716.00
2023-04-19T18:05:48.348Z,98708.00
2023-04-19T18:08:14.846Z,98709.00
2023-04-19T18:10:41.344Z,98708.00
2023-04-19T18:13:11.212Z,98714.00
2023-04-19T18:15:40.422Z,98719.00
2023-04-19T18:18:07.014Z,98712.00
2023-04-19T18:20:33.534Z,98724.00
2023-04-19T18:23:01.052Z,98716.00
2023-04-19T18:25:31.264Z,98723.00
2023-04-19T18:27:57.726Z,98716.00
2023-04-19T18:30:24.255Z,98716.00
2023-04-19T18:32:50.773Z,98722.00
2023-04-19T18:35:17.466Z,98719.00
2023-04-19T18:37:44.048Z,98717.00
2023-04-19T18:40:11.194Z,98728.00
2023-04-19T18:42:37.730Z,98726.00
2023-04-19T18:45:04.790Z,98725.00
2023-04-19T18:47:31.515Z,98721.00
2023-04-19T18:50:05.366Z,98724.00
2023-04-19T18:52:35.404Z,98726.00
2023-04-19T18:55:03.140Z,98733.00
2023-04-19T18:57:34.544Z,98735.00
2023-04-19T19:00:02.611Z,98744.00
2023-04-19T19:02:29.632Z,98746.00
2023-04-19T19:05:01.061Z,98748.00
2023-04-19T19:10:01.572Z,98749.00
2023-04-19T19:12:32.060Z,98754.00
2023-04-19T19:14:58.544Z,98747.00
2023-04-19T19:17:28.159Z,98753.00
2023-04-19T19:19:54.941Z,98758.00
2023-04-19T19:22:27.848Z,98762.00
2023-04-19T19:24:55.637Z,98759.00
2023-04-19T19:27:22.292Z,98756.00
2023-04-19T19:29:48.798Z,98756.00
2023-04-19T19:32:15.289Z,98762.00
2023-04-19T19:34:53.953Z,98762.00
2023-04-19T19:37:22.871Z,98766.00
2023-04-19T19:39:49.681Z,98758.00
2023-04-19T19:42:17.538Z,98770.00
2023-04-19T19:44:44.581Z,98768.00
2023-04-19T19:47:16.906Z,98765.00
2023-04-19T19:50:05.750Z,98765.00
2023-04-19T19:52:31.884Z,98765.00
2023-04-19T19:54:59.712Z,98769.00
2023-04-19T19:59:56.966Z,98773.00
2023-04-19T20:02:33.887Z,98777.00
2023-04-19T20:05:01.126Z,98764.00
2023-04-19T20:07:42.325Z,98767.00
2023-04-19T20:10:14.677Z,98770.00
2023-04-19T20:12:42.921Z,98779.00
2023-04-19T20:15:13.391Z,98773.00
2023-04-19T20:17:40.708Z,98775.00
2023-04-19T20:20:11.328Z,98773.00
2023-04-19T20:22:38.334Z,98775.00
2023-04-19T20:25:05.627Z,98775.00
2023-04-19T20:27:33.542Z,98773.00
2023-04-19T20:30:00.882Z,98764.00
2023-04-19T20:32:27.494Z,98774.00
2023-04-19T20:34:53.962Z,98769.00
2023-04-19T20:37:23.188Z,98767.00
2023-04-19T20:39:49.705Z,98776.00
2023-04-19T20:42:16.655Z,98764.00
2023-04-19T20:44:43.171Z,98768.00
2023-04-19T20:47:10.375Z,98771.00
2023-04-19T20:49:37.066Z,98763.00
2023-04-19T20:52:03.583Z,98766.00
2023-04-19T20:54:30.135Z,98764.00
2023-04-19T20:57:01.828Z,98760.00
2023-04-19T20:59:28.402Z,98758.00
2023-04-19T21:01:54.881Z,98763.00
2023-04-19T21:04:24.704Z,98755.00
2023-04-19T21:06:51.301Z,98753.00
2023-04-19T21:09:20.940Z,98747.00
2023-04-19T21:11:47.482Z,98749.00
2023-04-19T21:14:13.948Z,98751.00
2023-04-19T21:16:40.534Z,98743.00
2023-04-19T21:19:07.522Z,98746.00
2023-04-19T21:21:36.665Z,98753.00
2023-04-19T21:24:03.311Z,98732.00
2023-04-19T21:26:29.827Z,98742.00
2023-04-19T21:28:56.275Z,98741.00
2023-04-19T21:31:22.833Z,98735.00
2023-04-19T21:33:52.068Z,98727.00
2023-04-19T21:36:18.983Z,98734.00
2023-04-19T21:38:46.059Z,98731.00
2023-04-19T21:41:15.937Z,98733.00
2023-04-19T21:43:42.385Z,98728.00
2023-04-19T21:46:08.899Z,98729.00
2023-04-19T21:48:35.447Z,98726.00
2023-04-19T21:51:01.913Z,98726.00
2023-04-19T21:53:28.521Z,98723.00
2023-04-19T21:55:55.061Z,98724.00
2023-04-19T21:58:21.621Z,98725.00
2023-04-19T22:00:48.589Z,98723.00
2023-04-19T22:03:15.285Z,98722.00
2023-04-19T22:05:42.313Z,98713.00
2023-04-19T22:08:08.803Z,98717.00
2023-04-19T22:10:35.409Z,98716.00
2023-04-19T22:13:03.770Z,98716.00
2023-04-19T22:15:31.484Z,98721.00
2023-04-19T22:17:58.342Z,98719.00
2023-04-19T22:20:25.910Z,98719.00
2023-04-19T22:22:52.614Z,98721.00
2023-04-19T22:25:19.192Z,98716.00
2023-04-19T22:27:48.609Z,98713.00
2023-04-19T22:30:16.052Z,98713.00
2023-04-19T22:32:42.596Z,98705.00
2023-04-19T22:35:09.609Z,98711.00
2023-04-19T22:37:36.543Z,98709.00
2023-04-19T22:40:05.801Z,98704.00
2023-04-19T22:42:32.439Z,98703.00
2023-04-19T22:44:59.077Z,98708.00
2023-04-19T22:47:25.751Z,98708.00
2023-04-19T22:49:52.310Z,98711.00
2023-04-19T22:52:18.800Z,98704.00
2023-04-19T22:54:45.584Z,98699.00
2023-04-19T22:57:12.156Z,98689.00
2023-04-19T22:59:38.800Z,98694.00
2023-04-19T23:02:05.599Z,98691.00
2023-04-19T23:04:35.475Z,98687.00
2023-04-19T23:07:03.013Z,98686.00
2023-04-19T23:09:29.916Z,98683.00
2023-04-19T23:11:58.508Z,98673.00
2023-04-19T23:14:25.045Z,98670.00
2023-04-19T23:16:54.673Z,98667.00
2023-04-19T23:19:22.742Z,98665.00
2023-04-19T23:21:50.291Z,98656.00
2023-04-19T23:24:17.620Z,98656.00
2023-04-19T23:26:44.244Z,98655.00
2023-04-19T23:29:10.874Z,98641.00
2023-04-19T23:31:37.465Z,98647.00
2023-04-19T23:34:04.067Z,98633.00
2023-04-19T23:36:31.233Z,98637.00
2023-04-19T23:38:57.871Z,98630.00
2023-04-19T23:41:24.534Z,98629.00
2023-04-19T23:43:51.464Z,98624.00
2023-04-19T23:46:17.983Z,98630.00
2023-04-19T23:48:44.499Z,98627.00
2023-04-19T23:51:12.419Z,98629.00
2023-04-19T23:53:38.988Z,98628.00
2023-04-19T23:56:05.841Z,98617.00
2023-04-19T23:58:32.327Z,98612.00
